Time;durP1;ratioP1;P1;durP2;ratioP2;P2;SDS_P1;SDS_P2;PMS_P1;PMS_P2;Temp;Humidity;BMP_temperature;BMP_pressure;BME280_temperature;BME280_humidity;BME280_pressure;Samples;Min_cycle;Max_cycle;Signal;HPM_P1;HPM_P2
2022/06/24 00:01:41;;;;;;;0.10;0.10;;;;;;;22.77;51.00;100216.94;5142601;27;20047;-41
2022/06/24 00:04:08;;;;;;;0.10;0.10;;;;;;;22.77;51.03;100247.47;5120798;27;20386;-44
2022/06/24 00:06:49;;;;;;;0.10;0.10;;;;;;;22.77;50.91;100283.53;5141698;27;20047;-43
2022/06/24 00:09:15;;;;;;;0.10;0.10;;;;;;;22.78;51.02;100282.41;5145409;27;20082;-45
2022/06/24 00:11:41;;;;;;;0.10;0.10;;;;;;;22.77;50.88;100298.25;5144040;27;20138;-41
2022/06/24 00:14:11;;;;;;;0.10;0.10;;;;;;;22.76;51.05;100268.84;5124909;27;20073;-43
2022/06/24 00:16:59;;;;;;;0.10;0.10;;;;;;;22.76;50.90;100265.25;5109004;27;20078;-40
2022/06/24 00:19:25;;;;;;;0.10;0.10;;;;;;;22.76;50.97;100274.41;5112062;27;21221;-41
2022/06/24 00:22:14;;;;;;;0.10;0.10;;;;;;;22.77;51.03;100283.53;5145830;27;20139;-41
2022/06/24 00:24:40;;;;;;;0.10;0.10;;;;;;;22.77;50.80;100266.88;5143599;27;20085;-41
2022/06/24 00:27:23;;;;;;;0.10;0.10;;;;;;;22.77;51.07;100269.66;5125889;27;20585;-38
2022/06/24 00:29:49;;;;;;;0.10;0.10;;;;;;;22.76;50.92;100270.81;5144266;27;20476;-41
2022/06/24 00:32:16;;;;;;;0.10;0.10;;;;;;;22.76;51.07;100263.31;5145177;27;20074;-41
2022/06/24 00:34:42;;;;;;;0.10;0.10;;;;;;;22.76;51.04;100260.53;5142303;27;20075;-42
2022/06/24 00:37:24;;;;;;;0.10;0.10;;;;;;;22.75;51.18;100267.22;5123169;27;20046;-40
2022/06/24 00:39:51;;;;;;;0.10;0.10;;;;;;;22.76;51.11;100288.28;5103891;27;20058;-40
2022/06/24 00:42:18;;;;;;;0.10;0.10;;;;;;;22.76;50.95;100315.22;5143085;27;20088;-41
2022/06/24 00:44:49;;;;;;;0.10;0.10;;;;;;;22.75;50.88;100322.75;5142999;27;20078;-42
2022/06/24 00:47:15;;;;;;;0.10;0.10;;;;;;;22.76;50.97;100329.91;5120833;27;20092;-41
2022/06/24 00:49:42;;;;;;;0.10;0.10;;;;;;;22.75;50.93;100338.53;5134902;27;20466;-38
2022/06/24 00:52:08;;;;;;;0.10;0.10;;;;;;;22.75;51.08;100358.81;5094703;28;20075;-37
2022/06/24 00:54:34;;;;;;;0.10;0.10;;;;;;;22.76;50.87;100396.53;5128484;28;20477;-42
2022/06/24 00:57:00;;;;;;;0.10;0.10;;;;;;;22.76;50.88;100409.59;5128203;28;20074;-40
2022/06/24 00:59:26;;;;;;;0.10;0.10;;;;;;;22.74;50.85;100412.69;5132909;28;20053;-39
2022/06/24 01:01:52;;;;;;;0.10;0.10;;;;;;;22.76;51.12;100406.84;5128927;28;20057;-41
2022/06/24 01:04:17;;;;;;;0.10;0.10;;;;;;;22.76;51.05;100401.28;5131135;28;20043;-41
2022/06/24 01:06:44;;;;;;;0.10;0.10;;;;;;;22.75;50.87;100389.38;5123102;28;20447;-38
2022/06/24 01:09:10;;;;;;;0.10;0.10;;;;;;;22.76;51.40;100359.63;5109171;28;20134;-42
2022/06/24 01:11:38;;;;;;;0.10;0.10;;;;;;;22.76;50.91;100351.31;5130053;28;20504;-39
2022/06/24 01:14:04;;;;;;;0.10;0.10;;;;;;;22.75;51.01;100344.94;5129693;28;20088;-43
2022/06/24 01:16:30;;;;;;;0.10;0.10;;;;;;;22.74;51.01;100343.28;5107927;28;20401;-42
2022/06/24 01:19:03;;;;;;;0.10;0.10;;;;;;;22.74;51.04;100337.72;5124955;28;20051;-43
2022/06/24 01:21:34;;;;;;;0.10;0.10;;;;;;;22.74;51.11;100334.13;5129488;28;20105;-44
2022/06/24 01:24:05;;;;;;;0.10;0.10;;;;;;;22.74;50.85;100320.25;5094258;28;20086;-43
2022/06/24 01:26:30;;;;;;;0.10;0.10;;;;;;;22.74;50.84;100323.03;5111868;28;20067;-42
2022/06/24 01:28:56;;;;;;;0.10;0.10;;;;;;;22.73;50.97;100325.00;5124881;28;20058;-43
2022/06/24 01:31:21;;;;;;;0.10;0.10;;;;;;;22.73;50.92;100330.56;5130606;28;20044;-42
2022/06/24 01:33:47;;;;;;;0.10;0.10;;;;;;;22.73;50.90;100315.84;5124293;28;20039;-43
2022/06/24 01:36:13;;;;;;;0.10;0.10;;;;;;;22.73;50.94;100318.63;5130660;28;20050;-40
2022/06/24 01:38:38;;;;;;;0.10;0.10;;;;;;;22.73;51.01;100316.66;5127541;28;20035;-43
2022/06/24 01:41:09;;;;;;;0.10;0.10;;;;;;;22.73;51.10;100311.13;5130521;27;20047;-43
2022/06/24 01:43:35;;;;;;;0.10;0.10;;;;;;;22.73;51.16;100299.19;5124953;28;20047;-43
2022/06/24 01:46:01;;;;;;;0.10;0.10;;;;;;;22.72;51.20;100301.16;5128716;28;20047;-43
2022/06/24 01:48:26;;;;;;;0.10;0.10;;;;;;;22.73;51.19;100288.09;5124775;27;20477;-44
2022/06/24 01:50:52;;;;;;;0.10;0.10;;;;;;;22.72;50.91;100267.84;5125781;28;20134;-43
2022/06/24 01:53:18;;;;;;;0.10;0.10;;;;;;;22.73;50.87;100293.66;5127445;28;20047;-41
2022/06/24 01:55:44;;;;;;;0.10;0.10;;;;;;;22.73;50.92;100307.53;5127782;28;20046;-43
2022/06/24 01:58:10;;;;;;;0.15;0.15;;;;;;;22.72;51.18;100308.69;5129875;28;20134;-43
2022/06/24 02:00:36;;;;;;;0.10;0.10;;;;;;;22.73;51.01;100315.84;5108721;28;20401;-41
2022/06/24 02:03:04;;;;;;;0.10;0.10;;;;;;;22.72;50.86;100323.38;5125200;28;20046;-44
2022/06/24 02:05:31;;;;;;;0.10;0.10;;;;;;;22.73;51.06;100338.88;5093609;28;20081;-43
2022/06/24 02:07:56;;;;;;;0.10;0.10;;;;;;;22.72;50.88;100345.56;5128536;28;20043;-44
2022/06/24 02:13:39;;;;;;;0.10;0.10;;;;;;;22.72;50.86;100340.03;5111288;28;20105;-43
2022/06/24 02:15:56;;;;;;;0.10;0.10;;;;;;;22.71;50.94;100337.56;5112883;28;20441;-43
2022/06/24 02:18:22;;;;;;;;;;;;;;;22.71;50.86;100346.72;5127983;28;20039;-42
2022/06/24 02:20:49;;;;;;;0.20;0.20;;;;;;;22.71;50.97;100346.72;5108860;28;19919;-40
2022/06/24 02:23:15;;;;;;;0.10;0.10;;;;;;;22.72;50.99;100336.44;5108752;28;20070;-42
2022/06/24 02:25:41;;;;;;;0.10;0.10;;;;;;;22.71;50.92;100332.00;5130631;28;20119;-44
2022/06/24 02:28:07;;;;;;;0.10;0.10;;;;;;;22.71;50.95;100332.00;5130018;28;20440;-44
2022/06/24 02:30:32;;;;;;;0.10;0.10;;;;;;;22.71;51.17;100324.50;5128515;28;20035;-44
2022/06/24 02:32:58;;;;;;;0.10;0.10;;;;;;;22.72;51.04;100311.44;5125491;28;20047;-43
2022/06/24 02:35:24;;;;;;;0.10;0.10;;;;;;;22.71;50.84;100312.56;5131425;28;20069;-44
2022/06/24 02:37:49;;;;;;;0.10;0.10;;;;;;;22.71;51.33;100296.75;5128579;28;20079;-44
2022/06/24 02:40:47;;;;;;;0.10;0.10;;;;;;;22.71;50.95;100298.69;5129434;28;20046;-42
2022/06/24 02:43:01;;;;;;;0.10;0.10;;;;;;;22.70;50.86;100291.50;5110779;28;20074;-43
2022/06/24 02:45:27;;;;;;;0.10;0.10;;;;;;;22.70;51.06;100278.44;5129818;27;20061;-42
2022/06/24 02:47:52;;;;;;;0.10;0.10;;;;;;;22.70;51.01;100281.22;5120747;28;20409;-42
2022/06/24 02:50:18;;;;;;;0.10;0.10;;;;;;;22.70;50.84;100292.31;5126761;28;20055;-42
2022/06/24 02:52:44;;;;;;;0.10;0.10;;;;;;;22.70;50.96;100297.88;5128639;28;20046;-44
2022/06/24 02:55:09;;;;;;;0.10;0.10;;;;;;;22.70;50.97;100297.88;5126604;28;20058;-44
2022/06/24 02:57:35;;;;;;;0.10;0.10;;;;;;;22.70;50.87;100289.53;5125997;28;20104;-42
2022/06/24 03:00:00;;;;;;;0.10;0.10;;;;;;;22.69;51.23;100290.69;5126529;28;20537;-42
2022/06/24 03:02:26;;;;;;;0.10;0.10;;;;;;;22.70;50.85;100274.84;5126987;28;20382;-41
2022/06/24 03:04:52;;;;;;;0.10;0.10;;;;;;;22.70;51.13;100258.19;5127606;28;20047;-44
2022/06/24 03:07:18;;;;;;;0.10;0.10;;;;;;;22.71;50.97;100251.50;5127178;28;20363;-44
2022/06/24 03:09:44;;;;;;;0.10;0.10;;;;;;;22.71;50.94;100251.50;5128828;28;20114;-40
2022/06/24 03:12:09;;;;;;;0.10;0.10;;;;;;;22.70;50.82;100252.66;5129757;27;20495;-42
2022/06/24 03:14:35;;;;;;;0.10;0.10;;;;;;;22.69;50.97;100249.06;5127811;28;20047;-40
2022/06/24 03:17:01;;;;;;;0.10;0.10;;;;;;;22.70;51.05;100272.06;5124176;28;20078;-42
2022/06/24 03:19:26;;;;;;;0.10;0.10;;;;;;;22.69;50.92;100274.03;5126773;28;20047;-42
2022/06/24 03:21:52;;;;;;;0.10;0.10;;;;;;;22.68;51.03;100258.53;5129624;28;20043;-42
2022/06/24 03:24:18;;;;;;;0.10;0.10;;;;;;;22.68;51.02;100247.44;5126984;28;20039;-44
2022/06/24 03:26:43;;;;;;;0.10;0.10;;;;;;;22.69;50.87;100248.25;5127007;28;20039;-40
2022/06/24 03:29:11;;;;;;;0.10;0.10;;;;;;;22.68;50.90;100252.97;5128720;28;20047;-44
2022/06/24 03:31:36;;;;;;;0.10;0.10;;;;;;;22.68;50.70;100252.97;5127184;28;20339;-44
2022/06/24 03:34:02;;;;;;;0.10;0.10;;;;;;;22.68;50.83;100255.75;5127583;28;20046;-42
2022/06/24 03:36:28;;;;;;;0.10;0.10;;;;;;;22.69;50.76;100267.69;5126173;27;20062;-42
2022/06/24 03:38:53;;;;;;;0.20;0.20;;;;;;;22.68;50.95;100274.38;5127388;28;20386;-43
2022/06/24 03:41:19;;;;;;;0.10;0.10;;;;;;;22.68;50.85;100266.84;5127391;27;20054;-42
2022/06/24 03:43:45;;;;;;;0.10;0.10;;;;;;;22.68;50.89;100277.16;5120984;28;20043;-41
2022/06/24 03:46:10;;;;;;;0.10;0.10;;;;;;;22.68;50.90;100272.41;5127595;28;20051;-43
2022/06/24 03:48:36;;;;;;;0.10;0.10;;;;;;;22.67;50.96;100268.00;5126672;28;20054;-40
2022/06/24 03:51:02;;;;;;;0.10;0.10;;;;;;;22.68;50.97;100266.03;5125687;28;20606;-43
2022/06/24 03:53:29;;;;;;;0.10;0.10;;;;;;;22.68;50.73;100261.31;5126500;28;20425;-41
2022/06/24 03:55:55;;;;;;;0.10;0.10;;;;;;;22.68;50.94;100258.53;5127372;28;20079;-42
2022/06/24 03:58:21;;;;;;;0.10;0.10;;;;;;;22.67;51.03;100254.13;5126936;28;20043;-42
2022/06/24 04:00:46;;;;;;;0.10;0.10;;;;;;;22.68;50.94;100252.16;5128400;28;20049;-40
2022/06/24 04:03:12;;;;;;;0.10;0.10;;;;;;;22.67;50.96;100262.44;5109201;28;20067;-42
2022/06/24 04:05:38;;;;;;;0.20;0.20;;;;;;;22.67;50.90;100262.44;5125418;28;20043;-44
2022/06/24 04:08:04;;;;;;;0.10;0.10;;;;;;;22.68;50.87;100266.03;5128525;28;20096;-44
2022/06/24 04:10:30;;;;;;;0.10;0.10;;;;;;;22.67;51.13;100262.44;5127786;28;20093;-42
2022/06/24 04:12:55;;;;;;;0.10;0.10;;;;;;;22.67;50.92;100265.22;5105292;28;20457;-43
2022/06/24 04:15:21;;;;;;;0.10;0.10;;;;;;;22.68;50.97;100266.03;5127249;28;20043;-42
2022/06/24 04:17:48;;;;;;;0.10;0.10;;;;;;;22.67;50.95;100262.44;5107848;28;20039;-43
2022/06/24 04:20:15;;;;;;;0.10;0.10;;;;;;;22.66;50.91;100266.34;5128260;28;20119;-43
2022/06/24 04:22:41;;;;;;;0.10;0.10;;;;;;;22.67;50.87;100268.00;5125279;28;20043;-43
2022/06/24 04:25:08;;;;;;;0.10;0.10;;;;;;;22.67;50.97;100269.97;5110141;28;20673;-43
2022/06/24 04:27:34;;;;;;;0.10;0.10;;;;;;;22.67;51.03;100272.75;5126631;28;20051;-43
2022/06/24 04:30:03;;;;;;;0.10;0.10;;;;;;;22.66;51.05;100271.91;5132068;28;20196;-43
2022/06/24 04:32:29;;;;;;;0.10;0.10;;;;;;;22.66;50.98;100269.13;5130573;28;20051;-40
2022/06/24 04:34:56;;;;;;;0.10;0.10;;;;;;;22.66;51.04;100265.53;5128482;28;20039;-42
2022/06/24 04:37:22;;;;;;;0.10;0.10;;;;;;;22.66;50.90;100263.56;5111191;28;20047;-43
2022/06/24 04:39:47;;;;;;;0.10;0.10;;;;;;;22.66;51.00;100258.03;5111076;28;20043;-43
2022/06/24 04:42:13;;;;;;;0.20;0.20;;;;;;;22.67;50.96;100268.00;5127924;28;20050;-44
2022/06/24 04:44:38;;;;;;;0.10;0.10;;;;;;;22.67;50.84;100256.91;5130915;28;20117;-41
2022/06/24 04:47:10;;;;;;;0.10;0.10;;;;;;;22.66;50.95;100263.56;5126661;28;20454;-43
2022/06/24 04:49:37;;;;;;;0.10;0.10;;;;;;;22.67;51.07;100264.41;5127338;28;20058;-43
2022/06/24 04:52:04;;;;;;;0.10;0.10;;;;;;;22.67;50.91;100261.63;5130412;28;20109;-43
2022/06/24 04:54:30;;;;;;;0.10;0.10;;;;;;;22.66;50.85;100265.53;5129892;28;20454;-43
2022/06/24 04:56:55;;;;;;;0.10;0.10;;;;;;;22.66;50.82;100271.91;5130005;28;20047;-43
2022/06/24 04:59:21;;;;;;;0.10;0.10;;;;;;;22.66;51.04;100282.19;5125393;28;20506;-43
2022/06/24 05:01:47;;;;;;;0.10;0.10;;;;;;;22.68;51.05;100286.28;5132379;28;20417;-44
2022/06/24 05:04:13;;;;;;;0.10;0.10;;;;;;;22.69;50.95;100276.00;5129771;28;20063;-43
2022/06/24 05:06:39;;;;;;;0.10;0.10;;;;;;;22.68;50.75;100282.69;5124493;28;20204;-43
2022/06/24 05:09:05;;;;;;;0.10;0.10;;;;;;;22.68;51.08;100280.75;5126725;28;20071;-43
2022/06/24 05:11:31;;;;;;;0.10;0.10;;;;;;;22.69;50.85;100289.88;5128295;28;20668;-42
2022/06/24 05:13:57;;;;;;;0.10;0.10;;;;;;;22.66;50.83;100277.44;5128533;28;20131;-42
2022/06/24 05:16:23;;;;;;;0.10;0.10;;;;;;;22.68;51.11;100291.03;5125997;28;20043;-43
2022/06/24 05:19:04;;;;;;;0.10;0.10;;;;;;;22.66;50.99;100282.19;5121931;28;20758;-42
2022/06/24 05:21:30;;;;;;;0.10;0.10;;;;;;;22.68;50.81;100283.50;5128963;28;20478;-43
2022/06/24 05:23:56;;;;;;;0.10;0.10;;;;;;;22.67;50.89;100281.06;5129168;28;20051;-41
2022/06/24 05:26:21;;;;;;;0.10;0.10;;;;;;;22.67;50.86;100281.88;5128266;28;20051;-42
2022/06/24 05:28:47;;;;;;;0.10;0.10;;;;;;;22.66;50.76;100291.31;5121165;28;20047;-40
2022/06/24 05:31:12;;;;;;;0.10;0.10;;;;;;;22.66;50.92;100285.78;5123765;27;20117;-42
2022/06/24 05:33:38;;;;;;;0.10;0.10;;;;;;;22.67;50.91;100292.97;5122700;28;20053;-44
2022/06/24 05:36:04;;;;;;;0.10;0.10;;;;;;;22.68;50.84;100291.03;5125665;27;20046;-42
2022/06/24 05:38:30;;;;;;;0.10;0.10;;;;;;;22.68;50.89;100286.28;5123605;28;20075;-37
2022/06/24 05:40:55;;;;;;;0.10;0.10;;;;;;;22.67;50.89;100281.88;5128335;28;20066;-44
2022/06/24 05:43:21;;;;;;;0.10;0.10;;;;;;;22.66;50.95;100274.66;5123710;28;20091;-43
2022/06/24 05:45:47;;;;;;;0.10;0.10;;;;;;;22.68;50.94;100272.41;5122783;28;20308;-43
2022/06/24 05:48:14;;;;;;;0.10;0.10;;;;;;;22.68;50.89;100271.59;5119320;28;20077;-42
2022/06/24 05:50:39;;;;;;;0.10;0.10;;;;;;;22.76;59.61;100268.84;5112791;28;20138;-45
2022/06/24 05:56:00;;;;;;;0.10;0.10;;;;;;;22.82;55.40;100272.28;5111295;27;20585;-45
2022/06/24 05:58:27;;;;;;;0.10;0.10;;;;;;;22.78;53.68;100266.56;5120553;27;20138;-41
2022/06/24 06:00:54;;;;;;;0.10;0.10;;;;;;;22.77;55.67;100261.34;5113223;28;20903;-43
2022/06/24 06:03:21;;;;;;;0.10;0.10;;;;;;;22.78;57.34;100266.56;5118983;28;20173;-38
2022/06/24 06:05:47;;;;;;;0.20;0.20;;;;;;;22.77;55.24;100264.94;5123416;28;20051;-44
2022/06/24 06:08:13;;;;;;;0.10;0.10;;;;;;;22.78;54.36;100262.97;5103016;28;20066;-44
2022/06/24 06:10:46;;;;;;;0.10;0.10;;;;;;;22.76;53.79;100262.47;5123826;28;20324;-41
2022/06/24 06:13:12;;;;;;;0.10;0.10;;;;;;;22.75;53.67;100264.44;5121233;28;20043;-44
2022/06/24 06:15:39;;;;;;;0.10;0.10;;;;;;;22.76;53.55;100256.94;5119258;27;20605;-41
2022/06/24 06:18:05;;;;;;;0.10;0.10;;;;;;;22.76;53.43;100265.25;5116044;27;20170;-40
2022/06/24 06:20:31;;;;;;;0.10;0.10;;;;;;;22.75;53.37;100258.91;5102662;28;20150;-42
2022/06/24 06:22:56;;;;;;;0.10;0.10;;;;;;;22.75;53.04;100267.22;5119578;27;20081;-40
2022/06/24 06:25:22;;;;;;;0.10;0.10;;;;;;;22.76;53.42;100265.25;5122938;27;20043;-44
2022/06/24 06:27:49;;;;;;;0.10;0.10;;;;;;;22.76;53.36;100266.06;5121607;27;20047;-43
2022/06/24 06:30:15;;;;;;;0.10;0.10;;;;;;;22.76;53.12;100262.47;5122440;27;20393;-43
2022/06/24 06:32:40;;;;;;;0.10;0.10;;;;;;;22.77;53.27;100261.34;5101502;27;20051;-42
2022/06/24 06:35:07;;;;;;;0.10;0.10;;;;;;;22.77;53.11;100267.72;5121713;27;20051;-43
2022/06/24 06:37:33;;;;;;;0.10;0.10;;;;;;;22.78;53.25;100265.75;5118459;27;20043;-40
2022/06/24 06:39:59;;;;;;;0.10;0.10;;;;;;;22.78;53.19;100249.09;5101852;27;20051;-40
2022/06/24 06:42:25;;;;;;;0.10;0.10;;;;;;;22.79;53.11;100256.28;5118426;27;20625;-40
2022/06/24 06:44:50;;;;;;;0.10;0.10;;;;;;;22.79;53.13;100251.53;5121859;27;20488;-44
2022/06/24 06:47:16;;;;;;;0.10;0.10;;;;;;;22.79;53.21;100247.94;5112598;27;20039;-43
2022/06/24 06:49:42;;;;;;;0.10;0.10;;;;;;;22.79;53.08;100250.72;5104640;28;20050;-43
2022/06/24 06:52:08;;;;;;;0.20;0.20;;;;;;;22.79;53.76;100257.09;5116630;28;20074;-40
2022/06/24 06:54:34;;;;;;;0.10;0.10;;;;;;;22.81;53.47;100251.22;5112221;28;20043;-43
2022/06/24 06:56:59;;;;;;;0.10;0.10;;;;;;;22.81;54.80;100256.78;5091583;27;20162;-39
2022/06/24 06:59:25;;;;;;;0.10;0.10;;;;;;;22.82;54.45;100250.09;5116760;27;20047;-41
2022/06/24 07:01:51;;;;;;;0.10;0.10;;;;;;;22.82;54.29;100252.03;5120089;27;20136;-41
2022/06/24 07:04:17;;;;;;;0.10;0.10;;;;;;;22.81;54.38;100254.00;5104906;28;20051;-43
2022/06/24 07:06:43;;;;;;;0.10;0.10;;;;;;;22.82;54.14;100257.59;5102245;28;20070;-42
2022/06/24 07:09:08;;;;;;;0.10;0.10;;;;;;;22.81;53.77;100270.66;5117160;28;20055;-41
2022/06/24 07:11:34;;;;;;;0.10;0.10;;;;;;;22.82;53.49;100277.84;5120597;28;20066;-43
2022/06/24 07:14:00;;;;;;;0.10;0.10;;;;;;;22.81;53.27;100281.78;5120706;27;20051;-43
2022/06/24 07:16:26;;;;;;;0.10;0.10;;;;;;;22.81;53.50;100281.78;5117339;27;20469;-43
2022/06/24 07:18:52;;;;;;;0.10;0.10;;;;;;;22.82;53.18;100297.28;5110944;28;20043;-45
2022/06/24 07:21:17;;;;;;;0.10;0.10;;;;;;;22.81;66.73;100312.31;5100569;28;20078;-45
2022/06/24 07:23:43;;;;;;;0.10;0.10;;;;;;;22.82;60.83;100305.59;5101260;28;20111;-40
2022/06/24 07:26:09;;;;;;;0.10;0.10;;;;;;;22.86;58.86;100303.00;5104502;28;20051;-43
2022/06/24 07:28:35;;;;;;;0.10;0.10;;;;;;;22.82;63.22;100313.94;5094136;28;20412;-44
2022/06/24 07:31:00;;;;;;;0.10;0.10;;;;;;;22.88;58.01;100320.16;5120201;28;20330;-43
2022/06/24 07:33:26;;;;;;;0.10;0.10;;;;;;;22.90;57.75;100304.03;5124047;28;20039;-44
2022/06/24 07:35:52;;;;;;;0.10;0.10;;;;;;;22.89;57.36;100299.59;5120812;28;20043;-44
2022/06/24 07:38:18;;;;;;;0.10;0.10;;;;;;;22.88;57.40;100290.44;5120863;28;20039;-43
2022/06/24 07:40:44;;;;;;;0.10;0.10;;;;;;;22.87;57.09;100286.03;5100219;28;20043;-43
2022/06/24 07:43:10;;;;;;;0.10;0.10;;;;;;;22.88;57.09;100279.31;5117907;27;20043;-44
2022/06/24 07:45:35;;;;;;;0.10;0.10;;;;;;;22.91;57.81;100286.22;5119313;28;20142;-42
2022/06/24 07:48:01;;;;;;;0.10;0.10;;;;;;;22.88;56.22;100284.88;5116407;28;20039;-45
2022/06/24 07:50:27;;;;;;;0.10;0.10;;;;;;;22.91;56.13;100294.56;5095106;28;20134;-45
2022/06/24 07:52:52;;;;;;;0.10;0.10;;;;;;;22.91;56.15;100300.13;5119600;28;20062;-37
2022/06/24 07:58:04;;;;;;;0.10;0.10;;;;;;;22.91;56.08;100300.94;5097896;27;20035;-41
2022/06/24 08:00:30;;;;;;;0.10;0.10;;;;;;;22.91;55.66;100300.94;5120404;27;20047;-44
2022/06/24 08:02:55;;;;;;;0.10;0.10;;;;;;;22.90;56.47;100299.31;5116937;27;20058;-43
2022/06/24 08:05:21;;;;;;;0.10;0.10;;;;;;;22.91;56.45;100302.91;5118623;27;20115;-38
2022/06/24 08:07:47;;;;;;;0.10;0.10;;;;;;;22.92;56.70;100302.56;5119048;27;20448;-45
2022/06/24 08:10:13;;;;;;;0.10;0.10;;;;;;;22.92;56.72;100316.44;5124186;27;20046;-43
2022/06/24 08:12:39;;;;;;;0.15;0.15;;;;;;;22.92;56.51;100316.44;5118353;27;20051;-41
2022/06/24 08:15:05;;;;;;;0.10;0.10;;;;;;;22.91;56.36;100325.91;5105879;28;20075;-41
2022/06/24 08:17:30;;;;;;;0.10;0.10;;;;;;;22.94;59.51;100314.19;5122596;27;20162;-44
2022/06/24 08:19:57;;;;;;;0.10;0.10;;;;;;;22.96;57.54;100303.56;5121069;27;20351;-47
2022/06/24 08:22:22;;;;;;;0.10;0.10;;;;;;;22.95;57.12;100301.94;5122827;27;20581;-42
2022/06/24 08:24:48;;;;;;;0.47;0.20;;;;;;;22.95;57.36;100306.66;5120634;28;20557;-46
2022/06/24 08:27:34;;;;;;;0.10;0.10;;;;;;;22.96;57.41;100311.88;5106535;28;20059;-45
2022/06/24 08:30:00;;;;;;;0.10;0.10;;;;;;;22.95;56.62;100315.00;5107659;28;20104;-44
2022/06/24 08:32:25;;;;;;;0.10;0.10;;;;;;;22.94;56.97;100311.41;5127936;28;20389;-43
2022/06/24 08:34:51;;;;;;;0.10;0.10;;;;;;;22.94;56.41;100308.63;5103153;28;20120;-43
2022/06/24 08:37:37;;;;;;;0.10;0.10;;;;;;;22.94;56.46;100307.81;5094553;28;20052;-37
2022/06/24 08:40:03;;;;;;;0.10;0.10;;;;;;;22.94;56.22;100310.59;5124535;27;20043;-43
2022/06/24 08:42:29;;;;;;;0.10;0.10;;;;;;;22.94;56.27;100311.41;5124562;28;20074;-44
2022/06/24 08:44:58;;;;;;;0.20;0.20;;;;;;;22.94;56.24;100319.75;5120633;28;20051;-42
2022/06/24 08:47:24;;;;;;;0.10;0.10;;;;;;;22.94;56.34;100321.69;5121913;28;20070;-43
2022/06/24 08:49:49;;;;;;;0.10;0.10;;;;;;;22.93;56.00;100309.78;5124973;27;20039;-43
2022/06/24 08:52:16;;;;;;;0.10;0.10;;;;;;;22.98;61.35;100314.38;5124636;28;20108;-43
2022/06/24 08:54:43;;;;;;;0.10;0.10;;;;;;;22.99;57.57;100313.22;5122853;27;20325;-43
2022/06/24 08:57:11;;;;;;;0.20;0.20;;;;;;;22.99;56.88;100321.53;5105654;28;20074;-42
2022/06/24 08:59:37;;;;;;;0.10;0.10;;;;;;;22.97;56.79;100324.66;5120777;28;20083;-42
2022/06/24 09:02:03;;;;;;;0.10;0.10;;;;;;;22.97;56.98;100330.22;5122255;28;20150;-41
2022/06/24 09:04:32;;;;;;;0.10;0.10;;;;;;;22.97;56.58;100333.00;5124982;28;20134;-42
2022/06/24 09:06:57;;;;;;;0.10;0.10;;;;;;;22.97;56.30;100337.69;5119834;28;20058;-41
2022/06/24 09:09:24;;;;;;;0.13;0.13;;;;;;;22.95;65.06;100337.22;5124688;27;20059;-44
2022/06/24 09:11:54;;;;;;;0.10;0.10;;;;;;;23.00;59.98;100346.22;5105879;28;20114;-38
2022/06/24 09:14:20;;;;;;;0.10;0.10;;;;;;;22.99;58.89;100339.03;5120762;28;20075;-43
2022/06/24 09:16:45;;;;;;;0.15;0.15;;;;;;;22.99;58.41;100332.66;5124775;28;20514;-40
2022/06/24 09:19:19;;;;;;;0.10;0.10;;;;;;;22.98;58.76;100342.13;5124580;28;20047;-43
2022/06/24 09:21:44;;;;;;;0.10;0.10;;;;;;;22.97;58.15;100338.53;5124334;27;20134;-43
2022/06/24 09:24:11;;;;;;;0.10;0.10;;;;;;;22.97;60.40;100324.66;5121387;28;20044;-41
2022/06/24 09:26:38;;;;;;;0.10;0.10;;;;;;;22.97;59.76;100334.91;5125328;28;20071;-44
2022/06/24 09:29:06;;;;;;;0.10;0.10;;;;;;;22.95;58.61;100334.44;5106176;28;20494;-40
2022/06/24 09:31:32;;;;;;;0.10;0.10;;;;;;;22.97;57.49;100335.75;5106414;28;20078;-38
2022/06/24 09:34:10;;;;;;;0.10;0.10;;;;;;;22.97;57.37;100327.44;5106424;28;20485;-43
2022/06/24 09:36:38;;;;;;;0.10;0.10;;;;;;;22.99;57.74;100335.44;5105200;28;20071;-43
2022/06/24 09:39:07;;;;;;;0.10;0.10;;;;;;;22.98;59.04;100320.72;5122303;28;20145;-42
2022/06/24 09:41:43;;;;;;;0.10;0.10;;;;;;;22.98;58.97;100314.38;5090239;28;20086;-44
2022/06/24 09:44:10;;;;;;;0.10;0.10;;;;;;;22.99;59.21;100319.59;5105447;28;20127;-44
2022/06/24 09:46:35;;;;;;;0.10;0.10;;;;;;;22.98;58.16;100311.59;5124414;28;20071;-43
2022/06/24 09:49:04;;;;;;;0.10;0.10;;;;;;;22.98;58.43;100317.13;5127837;27;20078;-43
2022/06/24 09:51:30;;;;;;;0.10;0.10;;;;;;;22.96;57.97;100309.09;5107492;28;20081;-43
2022/06/24 09:53:56;;;;;;;0.10;0.10;;;;;;;22.99;58.89;100302.09;5122937;28;20043;-43
2022/06/24 09:56:23;;;;;;;0.10;0.10;;;;;;;22.98;57.68;100306.03;5122475;28;20090;-44
2022/06/24 10:01:37;;;;;;;0.10;0.10;;;;;;;22.99;57.87;100296.56;5112002;28;20485;-41
2022/06/24 10:04:04;;;;;;;0.10;0.10;;;;;;;22.98;57.69;100295.75;5121316;28;20138;-44
2022/06/24 10:06:32;;;;;;;0.13;0.13;;;;;;;22.98;57.81;100298.53;5120822;28;20127;-43
2022/06/24 10:08:59;;;;;;;0.10;0.10;;;;;;;22.89;64.47;100308.75;5124766;28;20083;-40
2022/06/24 10:11:35;;;;;;;0.10;0.10;;;;;;;22.78;65.13;100302.66;5105483;28;20051;-40
2022/06/24 10:14:01;;;;;;;0.10;0.10;;;;;;;22.83;65.08;100296.13;5123822;27;20079;-45
2022/06/24 10:16:27;;;;;;;0.10;0.10;;;;;;;22.85;65.55;100295.84;5109454;28;20078;-41
2022/06/24 10:18:54;;;;;;;0.10;0.10;;;;;;;22.98;61.87;100292.97;5126087;28;20035;-40
2022/06/24 10:21:20;;;;;;;0.10;0.10;;;;;;;23.01;61.18;100300.66;5124375;27;20095;-42
2022/06/24 10:26:30;;;;;;;0.10;0.10;;;;;;;23.02;62.48;100298.69;5165524;27;20118;-41
2022/06/24 10:29:16;;;;;;;0.10;0.10;;;;;;;23.02;62.07;100298.69;5152795;27;20487;-40
2022/06/24 10:39:51;;;;;;;0.10;0.10;;;;;;;23.04;61.02;100313.06;5170981;27;20221;-41
2022/06/24 10:42:20;;;;;;;0.10;0.10;;;;;;;23.04;59.74;100318.63;5150343;27;20545;-42
2022/06/24 10:45:03;;;;;;;0.10;0.10;;;;;;;23.03;59.92;100315.03;5149405;27;20058;-41
2022/06/24 10:47:36;;;;;;;0.10;0.10;;;;;;;23.06;60.23;100326.63;5136578;27;20038;-42
2022/06/24 10:50:06;;;;;;;0.10;0.10;;;;;;;22.99;63.66;100322.38;5150372;27;20215;-36
2022/06/24 10:52:55;;;;;;;0.10;0.10;;;;;;;23.02;61.19;100318.94;5160626;27;20038;-40
2022/06/24 10:55:29;;;;;;;0.10;0.10;;;;;;;23.06;61.60;100326.63;5150352;27;20082;-41
2022/06/24 10:57:57;;;;;;;0.10;0.10;;;;;;;23.06;61.84;100312.72;5149821;27;20058;-41
2022/06/24 11:03:19;;;;;;;0.10;0.10;;;;;;;23.04;60.79;100313.88;5123849;27;20247;-43
2022/06/24 11:05:46;;;;;;;0.10;0.10;;;;;;;23.06;61.43;100319.13;5105628;28;20040;-44
2022/06/24 11:08:15;;;;;;;0.10;0.10;;;;;;;23.07;60.83;100309.66;5108067;28;20078;-44
2022/06/24 11:10:41;;;;;;;0.10;0.10;;;;;;;23.09;60.88;100310.13;5108970;28;20390;-42
2022/06/24 11:13:07;;;;;;;0.10;0.10;;;;;;;23.07;59.51;100294.94;5104223;28;20091;-42
2022/06/24 11:15:56;;;;;;;0.10;0.10;;;;;;;23.09;60.33;100304.56;5106886;28;20047;-43
2022/06/24 11:18:26;;;;;;;0.10;0.10;;;;;;;23.08;59.05;100302.13;5091047;28;20044;-42
2022/06/24 11:21:03;;;;;;;0.10;0.10;;;;;;;23.08;58.78;100302.13;5106461;28;20354;-44
2022/06/24 11:23:30;;;;;;;0.10;0.10;;;;;;;23.09;59.80;100301.00;5109877;28;20039;-43
2022/06/24 11:26:03;;;;;;;0.10;0.10;;;;;;;23.08;59.60;100304.91;5107374;28;20090;-44
2022/06/24 11:28:32;;;;;;;0.10;0.10;;;;;;;23.08;59.82;100302.13;5103633;28;20457;-42
2022/06/24 11:31:18;;;;;;;0.10;0.10;;;;;;;23.15;58.74;100308.06;5100583;28;20116;-41
2022/06/24 11:33:47;;;;;;;0.10;0.10;;;;;;;23.17;58.50;100314.09;5092368;28;20040;-42
2022/06/24 11:36:14;;;;;;;;;;;;;;;23.13;58.58;100310.31;5110690;28;20043;-43
2022/06/24 11:38:57;;;;;;;0.10;0.10;;;;;;;23.12;57.58;100305.91;5105621;28;20358;-41
2022/06/24 11:41:40;;;;;;;0.10;0.10;;;;;;;23.12;57.61;100298.38;5073356;28;20125;-40
2022/06/24 11:44:15;;;;;;;0.10;0.10;;;;;;;23.12;58.44;100295.63;5092150;28;20075;-40
2022/06/24 11:46:50;;;;;;;0.10;0.10;;;;;;;23.11;58.13;100299.53;5083831;28;20043;-37
2022/06/24 11:49:15;;;;;;;0.10;0.10;;;;;;;23.12;57.59;100283.69;5085802;28;20059;-40
2022/06/24 11:51:44;;;;;;;0.10;0.10;;;;;;;23.12;58.08;100298.38;5073366;28;20083;-40
2022/06/24 11:54:11;;;;;;;0.10;0.10;;;;;;;23.10;57.63;100289.56;5086544;28;20060;-42